Key West International Airport

Airport
ICAO code: 
KEYW
Summary
ICAO Region: 
NAM
Territory: 
Location: 
Key West, Florida,
Serving: 
Monroe County, Florida
Elevation: 
3 ft
Coordinates: 
Aerial View: 
24° 33' 25.153" N, 81° 45' 26.629" W
Airport WX: 
Tropical Revolving Storm
Metar
Observation
KEYW 040753Z AUTO 03005KT 10SM CLR 21/17 A3008 RMK AO2 SLP186 T02060172 $
Station
Key West, Key West International Airport
Date/Time
2021-12-04 07:53:00
Wind direction
30°
Wind speed
05 kts
Lowest cloud amount
n/a
Temperature
20.6°C
Dew point
17.2°C
Humidity
80%
Weather condition
n/a

Description

Key West International Airport is a county-owned public airport located 3 km east of the central business district of Key West, in Monroe County, Florida.

Climatology

Tropical Savanna climate (Köppen climate classification Aw) - monthly mean temperatures above 18°C, and a pronounced dry season. A Tropical Savanna climate has more pronounced dry seasons than a Tropical Monsoon climate.

Runways

Designator Length Width Surface Rops
9/27 1463 30 ASP Yes/Yes
Airport map: 
Aerial View: 

SKYbrary Partners:

Safety knowledge contributed by: